sensor_id;sensor_type;location;lat;lon;timestamp;P1;durP1;ratioP1;P2;durP2;ratioP2
49610;SDS011;35515;48.766;9.176;2023-11-19T00:01:53;3.67;;;2.08;;
49610;SDS011;35515;48.766;9.176;2023-11-19T00:04:21;4.72;;;2.63;;
49610;SDS011;35515;48.766;9.176;2023-11-19T00:06:47;3.35;;;2.15;;
49610;SDS011;35515;48.766;9.176;2023-11-19T00:09:30;4.72;;;3.00;;
49610;SDS011;35515;48.766;9.176;2023-11-19T00:12:05;4.88;;;2.60;;
49610;SDS011;35515;48.766;9.176;2023-11-19T00:14:36;6.22;;;3.28;;
49610;SDS011;35515;48.766;9.176;2023-11-19T00:17:07;3.20;;;2.17;;
49610;SDS011;35515;48.766;9.176;2023-11-19T00:19:36;4.32;;;2.60;;
49610;SDS011;35515;48.766;9.176;2023-11-19T00:22:06;3.70;;;2.13;;
49610;SDS011;35515;48.766;9.176;2023-11-19T00:24:35;5.50;;;2.45;;
49610;SDS011;35515;48.766;9.176;2023-11-19T00:27:17;3.85;;;2.45;;
49610;SDS011;35515;48.766;9.176;2023-11-19T00:29:44;3.92;;;2.53;;
49610;SDS011;35515;48.766;9.176;2023-11-19T00:32:25;4.20;;;2.63;;
49610;SDS011;35515;48.766;9.176;2023-11-19T00:35:00;4.70;;;2.72;;
49610;SDS011;35515;48.766;9.176;2023-11-19T00:37:28;5.47;;;2.55;;
49610;SDS011;35515;48.766;9.176;2023-11-19T00:39:58;3.53;;;2.60;;
49610;SDS011;35515;48.766;9.176;2023-11-19T00:42:30;7.57;;;3.15;;
49610;SDS011;35515;48.766;9.176;2023-11-19T00:44:59;5.53;;;2.67;;
49610;SDS011;35515;48.766;9.176;2023-11-19T00:47:29;3.55;;;2.35;;
49610;SDS011;35515;48.766;9.176;2023-11-19T00:50:04;3.45;;;2.10;;
49610;SDS011;35515;48.766;9.176;2023-11-19T00:52:37;4.13;;;2.28;;
49610;SDS011;35515;48.766;9.176;2023-11-19T00:55:09;3.92;;;1.77;;
49610;SDS011;35515;48.766;9.176;2023-11-19T00:57:38;3.45;;;2.13;;
49610;SDS011;35515;48.766;9.176;2023-11-19T01:00:12;7.30;;;2.50;;
49610;SDS011;35515;48.766;9.176;2023-11-19T01:02:49;3.22;;;1.85;;
49610;SDS011;35515;48.766;9.176;2023-11-19T01:05:22;2.88;;;1.70;;
49610;SDS011;35515;48.766;9.176;2023-11-19T01:07:57;3.75;;;2.10;;
49610;SDS011;35515;48.766;9.176;2023-11-19T01:10:36;2.17;;;1.63;;
49610;SDS011;35515;48.766;9.176;2023-11-19T01:13:08;3.95;;;2.17;;
49610;SDS011;35515;48.766;9.176;2023-11-19T01:15:36;2.00;;;1.52;;
49610;SDS011;35515;48.766;9.176;2023-11-19T01:18:09;4.15;;;1.58;;
49610;SDS011;35515;48.766;9.176;2023-11-19T01:20:37;3.20;;;1.67;;
49610;SDS011;35515;48.766;9.176;2023-11-19T01:23:04;4.97;;;1.90;;
49610;SDS011;35515;48.766;9.176;2023-11-19T01:25:30;2.70;;;1.48;;
49610;SDS011;35515;48.766;9.176;2023-11-19T01:27:57;3.40;;;1.40;;
49610;SDS011;35515;48.766;9.176;2023-11-19T01:30:24;3.90;;;1.77;;
49610;SDS011;35515;48.766;9.176;2023-11-19T01:32:50;1.45;;;1.00;;
49610;SDS011;35515;48.766;9.176;2023-11-19T01:35:19;1.55;;;1.10;;
49610;SDS011;35515;48.766;9.176;2023-11-19T01:37:47;1.75;;;0.93;;
49610;SDS011;35515;48.766;9.176;2023-11-19T01:40:13;1.35;;;0.90;;
49610;SDS011;35515;48.766;9.176;2023-11-19T01:42:40;1.25;;;0.80;;
49610;SDS011;35515;48.766;9.176;2023-11-19T01:45:07;2.15;;;0.82;;
49610;SDS011;35515;48.766;9.176;2023-11-19T01:47:36;1.08;;;1.00;;
49610;SDS011;35515;48.766;9.176;2023-11-19T01:50:06;3.25;;;1.15;;
49610;SDS011;35515;48.766;9.176;2023-11-19T01:52:33;1.58;;;0.90;;
49610;SDS011;35515;48.766;9.176;2023-11-19T01:55:04;1.05;;;0.80;;
49610;SDS011;35515;48.766;9.176;2023-11-19T01:57:34;2.75;;;1.08;;
49610;SDS011;35515;48.766;9.176;2023-11-19T02:00:02;1.50;;;0.95;;
49610;SDS011;35515;48.766;9.176;2023-11-19T02:02:30;1.17;;;0.80;;
49610;SDS011;35515;48.766;9.176;2023-11-19T02:04:57;1.08;;;0.98;;
49610;SDS011;35515;48.766;9.176;2023-11-19T02:07:30;1.85;;;0.90;;
49610;SDS011;35515;48.766;9.176;2023-11-19T02:09:58;0.73;;;0.70;;
49610;SDS011;35515;48.766;9.176;2023-11-19T02:12:26;1.33;;;0.85;;
49610;SDS011;35515;48.766;9.176;2023-11-19T02:14:54;1.33;;;0.90;;
49610;SDS011;35515;48.766;9.176;2023-11-19T02:17:27;1.00;;;0.75;;
49610;SDS011;35515;48.766;9.176;2023-11-19T02:19:56;0.95;;;0.80;;
49610;SDS011;35515;48.766;9.176;2023-11-19T02:22:23;1.23;;;0.70;;
49610;SDS011;35515;48.766;9.176;2023-11-19T02:24:51;0.70;;;0.70;;
49610;SDS011;35515;48.766;9.176;2023-11-19T02:27:23;2.00;;;0.80;;
49610;SDS011;35515;48.766;9.176;2023-11-19T02:29:55;1.20;;;0.80;;
49610;SDS011;35515;48.766;9.176;2023-11-19T02:32:23;1.05;;;0.90;;
49610;SDS011;35515;48.766;9.176;2023-11-19T02:34:56;3.27;;;1.87;;
49610;SDS011;35515;48.766;9.176;2023-11-19T02:37:23;2.90;;;1.48;;
49610;SDS011;35515;48.766;9.176;2023-11-19T02:39:49;1.85;;;0.90;;
49610;SDS011;35515;48.766;9.176;2023-11-19T02:42:19;2.53;;;0.90;;
49610;SDS011;35515;48.766;9.176;2023-11-19T02:44:45;0.95;;;0.75;;
49610;SDS011;35515;48.766;9.176;2023-11-19T02:47:15;1.30;;;0.80;;
49610;SDS011;35515;48.766;9.176;2023-11-19T02:49:42;1.55;;;0.95;;
49610;SDS011;35515;48.766;9.176;2023-11-19T02:52:08;0.90;;;0.90;;
49610;SDS011;35515;48.766;9.176;2023-11-19T02:54:44;2.08;;;1.13;;
49610;SDS011;35515;48.766;9.176;2023-11-19T02:57:10;1.45;;;0.90;;
49610;SDS011;35515;48.766;9.176;2023-11-19T02:59:38;1.20;;;0.80;;
49610;SDS011;35515;48.766;9.176;2023-11-19T03:02:10;0.80;;;0.80;;
49610;SDS011;35515;48.766;9.176;2023-11-19T03:04:38;1.05;;;0.80;;
49610;SDS011;35515;48.766;9.176;2023-11-19T03:07:05;1.00;;;0.70;;
49610;SDS011;35515;48.766;9.176;2023-11-19T03:09:34;1.27;;;0.82;;
49610;SDS011;35515;48.766;9.176;2023-11-19T03:12:00;1.05;;;0.73;;
49610;SDS011;35515;48.766;9.176;2023-11-19T03:14:32;1.35;;;0.70;;
49610;SDS011;35515;48.766;9.176;2023-11-19T03:17:00;1.50;;;0.90;;
49610;SDS011;35515;48.766;9.176;2023-11-19T03:19:26;0.75;;;0.75;;
49610;SDS011;35515;48.766;9.176;2023-11-19T03:21:56;1.38;;;0.90;;
49610;SDS011;35515;48.766;9.176;2023-11-19T03:24:24;0.80;;;0.80;;
49610;SDS011;35515;48.766;9.176;2023-11-19T03:26:51;0.95;;;0.82;;
49610;SDS011;35515;48.766;9.176;2023-11-19T03:29:17;0.60;;;0.60;;
49610;SDS011;35515;48.766;9.176;2023-11-19T03:31:48;1.10;;;0.88;;
49610;SDS011;35515;48.766;9.176;2023-11-19T03:34:16;0.82;;;0.70;;
49610;SDS011;35515;48.766;9.176;2023-11-19T03:36:44;0.70;;;0.70;;
49610;SDS011;35515;48.766;9.176;2023-11-19T03:39:14;1.08;;;0.80;;
49610;SDS011;35515;48.766;9.176;2023-11-19T03:41:41;0.88;;;0.77;;
49610;SDS011;35515;48.766;9.176;2023-11-19T03:44:06;0.88;;;0.70;;
49610;SDS011;35515;48.766;9.176;2023-11-19T03:46:35;0.75;;;0.75;;
49610;SDS011;35515;48.766;9.176;2023-11-19T03:49:01;1.65;;;0.63;;
49610;SDS011;35515;48.766;9.176;2023-11-19T03:51:29;0.60;;;0.60;;
49610;SDS011;35515;48.766;9.176;2023-11-19T03:53:58;1.15;;;0.80;;
49610;SDS011;35515;48.766;9.176;2023-11-19T03:56:26;0.70;;;0.70;;
49610;SDS011;35515;48.766;9.176;2023-11-19T03:58:53;0.60;;;0.60;;
49610;SDS011;35515;48.766;9.176;2023-11-19T04:01:19;0.57;;;0.50;;
49610;SDS011;35515;48.766;9.176;2023-11-19T04:03:46;0.55;;;0.50;;
49610;SDS011;35515;48.766;9.176;2023-11-19T04:06:14;1.35;;;0.70;;
49610;SDS011;35515;48.766;9.176;2023-11-19T04:08:40;0.60;;;0.60;;
49610;SDS011;35515;48.766;9.176;2023-11-19T04:11:07;1.52;;;0.73;;
49610;SDS011;35515;48.766;9.176;2023-11-19T04:13:36;0.98;;;0.60;;
49610;SDS011;35515;48.766;9.176;2023-11-19T04:16:02;0.50;;;0.50;;
49610;SDS011;35515;48.766;9.176;2023-11-19T04:18:29;0.65;;;0.60;;
49610;SDS011;35515;48.766;9.176;2023-11-19T04:20:57;0.60;;;0.60;;
49610;SDS011;35515;48.766;9.176;2023-11-19T04:23:23;0.60;;;0.60;;
49610;SDS011;35515;48.766;9.176;2023-11-19T04:25:50;0.68;;;0.50;;
49610;SDS011;35515;48.766;9.176;2023-11-19T04:28:21;1.38;;;0.63;;
49610;SDS011;35515;48.766;9.176;2023-11-19T04:30:50;0.50;;;0.50;;
49610;SDS011;35515;48.766;9.176;2023-11-19T04:33:18;0.60;;;0.60;;
49610;SDS011;35515;48.766;9.176;2023-11-19T04:35:45;0.60;;;0.60;;
49610;SDS011;35515;48.766;9.176;2023-11-19T04:38:11;0.50;;;0.50;;
49610;SDS011;35515;48.766;9.176;2023-11-19T04:40:38;0.65;;;0.60;;
49610;SDS011;35515;48.766;9.176;2023-11-19T04:43:04;0.80;;;0.60;;
49610;SDS011;35515;48.766;9.176;2023-11-19T04:45:33;1.30;;;0.60;;
49610;SDS011;35515;48.766;9.176;2023-11-19T04:48:01;0.40;;;0.40;;
49610;SDS011;35515;48.766;9.176;2023-11-19T04:50:27;0.95;;;0.50;;
49610;SDS011;35515;48.766;9.176;2023-11-19T04:52:53;0.50;;;0.50;;
49610;SDS011;35515;48.766;9.176;2023-11-19T04:55:21;0.50;;;0.50;;
49610;SDS011;35515;48.766;9.176;2023-11-19T04:57:47;0.75;;;0.50;;
49610;SDS011;35515;48.766;9.176;2023-11-19T05:00:16;8.73;;;0.80;;
49610;SDS011;35515;48.766;9.176;2023-11-19T05:02:43;0.50;;;0.50;;
49610;SDS011;35515;48.766;9.176;2023-11-19T05:05:11;0.77;;;0.63;;
49610;SDS011;35515;48.766;9.176;2023-11-19T05:07:38;0.75;;;0.50;;
49610;SDS011;35515;48.766;9.176;2023-11-19T05:10:05;0.57;;;0.55;;
49610;SDS011;35515;48.766;9.176;2023-11-19T05:12:33;0.50;;;0.50;;
49610;SDS011;35515;48.766;9.176;2023-11-19T05:15:00;1.00;;;0.68;;
49610;SDS011;35515;48.766;9.176;2023-11-19T05:17:26;0.45;;;0.45;;
49610;SDS011;35515;48.766;9.176;2023-11-19T05:19:53;0.50;;;0.50;;
49610;SDS011;35515;48.766;9.176;2023-11-19T05:22:20;0.55;;;0.55;;
49610;SDS011;35515;48.766;9.176;2023-11-19T05:24:46;0.60;;;0.60;;
49610;SDS011;35515;48.766;9.176;2023-11-19T05:27:14;0.68;;;0.60;;
49610;SDS011;35515;48.766;9.176;2023-11-19T05:29:41;0.77;;;0.70;;
49610;SDS011;35515;48.766;9.176;2023-11-19T05:32:08;0.88;;;0.60;;
49610;SDS011;35515;48.766;9.176;2023-11-19T05:34:35;0.50;;;0.50;;
49610;SDS011;35515;48.766;9.176;2023-11-19T05:37:02;1.08;;;0.52;;
49610;SDS011;35515;48.766;9.176;2023-11-19T05:39:33;0.90;;;0.73;;
49610;SDS011;35515;48.766;9.176;2023-11-19T05:41:59;0.70;;;0.70;;
49610;SDS011;35515;48.766;9.176;2023-11-19T05:44:26;0.65;;;0.55;;
49610;SDS011;35515;48.766;9.176;2023-11-19T05:46:53;0.60;;;0.60;;
49610;SDS011;35515;48.766;9.176;2023-11-19T05:49:19;0.77;;;0.73;;
49610;SDS011;35515;48.766;9.176;2023-11-19T05:51:46;1.13;;;0.80;;
49610;SDS011;35515;48.766;9.176;2023-11-19T05:54:16;0.70;;;0.70;;
49610;SDS011;35515;48.766;9.176;2023-11-19T05:56:48;0.80;;;0.60;;
49610;SDS011;35515;48.766;9.176;2023-11-19T05:59:15;0.50;;;0.50;;
49610;SDS011;35515;48.766;9.176;2023-11-19T06:01:43;0.50;;;0.50;;
49610;SDS011;35515;48.766;9.176;2023-11-19T06:04:10;0.52;;;0.52;;
49610;SDS011;35515;48.766;9.176;2023-11-19T06:06:38;0.73;;;0.60;;
49610;SDS011;35515;48.766;9.176;2023-11-19T06:09:08;0.65;;;0.65;;
49610;SDS011;35515;48.766;9.176;2023-11-19T06:11:34;0.60;;;0.60;;
49610;SDS011;35515;48.766;9.176;2023-11-19T06:14:03;0.60;;;0.60;;
49610;SDS011;35515;48.766;9.176;2023-11-19T06:16:30;0.50;;;0.50;;
49610;SDS011;35515;48.766;9.176;2023-11-19T06:18:57;0.45;;;0.45;;
49610;SDS011;35515;48.766;9.176;2023-11-19T06:21:23;0.60;;;0.60;;
49610;SDS011;35515;48.766;9.176;2023-11-19T06:23:50;0.50;;;0.50;;
49610;SDS011;35515;48.766;9.176;2023-11-19T06:26:18;0.60;;;0.60;;
49610;SDS011;35515;48.766;9.176;2023-11-19T06:28:44;0.60;;;0.60;;
49610;SDS011;35515;48.766;9.176;2023-11-19T06:31:15;0.50;;;0.50;;
49610;SDS011;35515;48.766;9.176;2023-11-19T06:33:42;0.98;;;0.60;;
49610;SDS011;35515;48.766;9.176;2023-11-19T06:36:08;0.40;;;0.40;;
49610;SDS011;35515;48.766;9.176;2023-11-19T06:38:35;2.15;;;0.75;;
49610;SDS011;35515;48.766;9.176;2023-11-19T06:41:06;1.40;;;0.82;;
49610;SDS011;35515;48.766;9.176;2023-11-19T06:43:34;0.65;;;0.60;;
49610;SDS011;35515;48.766;9.176;2023-11-19T06:46:00;1.40;;;0.68;;
49610;SDS011;35515;48.766;9.176;2023-11-19T06:48:29;1.25;;;0.70;;
49610;SDS011;35515;48.766;9.176;2023-11-19T06:50:56;1.05;;;0.70;;
49610;SDS011;35515;48.766;9.176;2023-11-19T06:53:23;1.05;;;0.65;;
49610;SDS011;35515;48.766;9.176;2023-11-19T06:55:49;0.60;;;0.60;;
49610;SDS011;35515;48.766;9.176;2023-11-19T06:58:16;0.73;;;0.70;;
49610;SDS011;35515;48.766;9.176;2023-11-19T07:00:43;0.70;;;0.70;;
49610;SDS011;35515;48.766;9.176;2023-11-19T07:03:13;1.17;;;0.70;;
49610;SDS011;35515;48.766;9.176;2023-11-19T07:05:42;1.33;;;0.60;;
49610;SDS011;35515;48.766;9.176;2023-11-19T07:08:08;0.65;;;0.65;;
49610;SDS011;35515;48.766;9.176;2023-11-19T07:10:36;1.20;;;0.80;;
49610;SDS011;35515;48.766;9.176;2023-11-19T07:13:02;0.52;;;0.52;;
49610;SDS011;35515;48.766;9.176;2023-11-19T07:15:30;0.70;;;0.68;;
49610;SDS011;35515;48.766;9.176;2023-11-19T07:17:58;0.55;;;0.55;;
49610;SDS011;35515;48.766;9.176;2023-11-19T07:20:24;1.60;;;0.70;;
49610;SDS011;35515;48.766;9.176;2023-11-19T07:22:53;1.48;;;0.90;;
49610;SDS011;35515;48.766;9.176;2023-11-19T07:25:22;1.33;;;0.80;;
49610;SDS011;35515;48.766;9.176;2023-11-19T07:27:48;0.65;;;0.60;;
49610;SDS011;35515;48.766;9.176;2023-11-19T07:30:15;0.80;;;0.70;;
49610;SDS011;35515;48.766;9.176;2023-11-19T07:32:43;2.33;;;1.20;;
49610;SDS011;35515;48.766;9.176;2023-11-19T07:35:09;0.90;;;0.70;;
49610;SDS011;35515;48.766;9.176;2023-11-19T07:37:37;0.80;;;0.80;;
49610;SDS011;35515;48.766;9.176;2023-11-19T07:40:08;0.70;;;0.70;;
49610;SDS011;35515;48.766;9.176;2023-11-19T07:42:37;0.85;;;0.85;;
49610;SDS011;35515;48.766;9.176;2023-11-19T07:45:04;0.70;;;0.70;;
49610;SDS011;35515;48.766;9.176;2023-11-19T07:47:33;0.82;;;0.60;;
49610;SDS011;35515;48.766;9.176;2023-11-19T07:50:00;0.60;;;0.60;;
49610;SDS011;35515;48.766;9.176;2023-11-19T07:52:27;1.98;;;0.82;;
49610;SDS011;35515;48.766;9.176;2023-11-19T07:54:54;0.80;;;0.60;;
49610;SDS011;35515;48.766;9.176;2023-11-19T07:57:22;1.85;;;0.75;;
49610;SDS011;35515;48.766;9.176;2023-11-19T07:59:49;0.82;;;0.82;;
49610;SDS011;35515;48.766;9.176;2023-11-19T08:02:18;2.15;;;0.85;;
49610;SDS011;35515;48.766;9.176;2023-11-19T08:04:45;0.60;;;0.60;;
49610;SDS011;35515;48.766;9.176;2023-11-19T08:07:15;2.17;;;0.70;;
49610;SDS011;35515;48.766;9.176;2023-11-19T08:09:41;1.35;;;0.95;;
49610;SDS011;35515;48.766;9.176;2023-11-19T08:12:08;0.73;;;0.70;;
49610;SDS011;35515;48.766;9.176;2023-11-19T08:14:36;1.40;;;0.90;;
49610;SDS011;35515;48.766;9.176;2023-11-19T08:17:03;0.57;;;0.57;;
49610;SDS011;35515;48.766;9.176;2023-11-19T08:19:29;1.38;;;0.65;;
49610;SDS011;35515;48.766;9.176;2023-11-19T08:21:56;0.63;;;0.60;;
49610;SDS011;35515;48.766;9.176;2023-11-19T08:24:22;0.60;;;0.60;;
49610;SDS011;35515;48.766;9.176;2023-11-19T08:26:49;1.65;;;0.68;;
49610;SDS011;35515;48.766;9.176;2023-11-19T08:29:15;1.08;;;0.70;;
49610;SDS011;35515;48.766;9.176;2023-11-19T08:31:43;1.27;;;0.80;;
49610;SDS011;35515;48.766;9.176;2023-11-19T08:34:10;1.10;;;0.80;;
49610;SDS011;35515;48.766;9.176;2023-11-19T08:36:37;2.45;;;0.60;;
49610;SDS011;35515;48.766;9.176;2023-11-19T08:39:04;1.13;;;0.70;;
49610;SDS011;35515;48.766;9.176;2023-11-19T08:41:30;2.08;;;0.70;;
49610;SDS011;35515;48.766;9.176;2023-11-19T08:43:57;1.60;;;0.88;;
49610;SDS011;35515;48.766;9.176;2023-11-19T08:46:23;2.35;;;0.80;;
49610;SDS011;35515;48.766;9.176;2023-11-19T08:48:52;0.90;;;0.60;;
49610;SDS011;35515;48.766;9.176;2023-11-19T08:51:22;1.90;;;0.90;;
49610;SDS011;35515;48.766;9.176;2023-11-19T08:53:49;1.05;;;0.80;;
49610;SDS011;35515;48.766;9.176;2023-11-19T08:56:16;1.63;;;0.70;;
49610;SDS011;35515;48.766;9.176;2023-11-19T08:58:43;1.95;;;0.70;;
49610;SDS011;35515;48.766;9.176;2023-11-19T09:01:09;0.75;;;0.70;;
49610;SDS011;35515;48.766;9.176;2023-11-19T09:03:36;2.38;;;1.13;;
49610;SDS011;35515;48.766;9.176;2023-11-19T09:06:04;0.70;;;0.70;;
49610;SDS011;35515;48.766;9.176;2023-11-19T09:08:31;1.98;;;0.85;;
49610;SDS011;35515;48.766;9.176;2023-11-19T09:10:58;3.00;;;0.80;;
49610;SDS011;35515;48.766;9.176;2023-11-19T09:13:24;1.00;;;0.90;;
49610;SDS011;35515;48.766;9.176;2023-11-19T09:15:51;3.05;;;0.80;;
49610;SDS011;35515;48.766;9.176;2023-11-19T09:18:17;1.85;;;0.80;;
49610;SDS011;35515;48.766;9.176;2023-11-19T09:20:44;1.55;;;0.80;;
49610;SDS011;35515;48.766;9.176;2023-11-19T09:23:12;1.25;;;1.10;;
49610;SDS011;35515;48.766;9.176;2023-11-19T09:25:38;1.15;;;1.13;;
49610;SDS011;35515;48.766;9.176;2023-11-19T09:28:05;1.63;;;0.85;;
49610;SDS011;35515;48.766;9.176;2023-11-19T09:30:33;1.58;;;1.00;;
49610;SDS011;35515;48.766;9.176;2023-11-19T09:33:00;1.10;;;0.68;;
49610;SDS011;35515;48.766;9.176;2023-11-19T09:35:27;1.00;;;0.73;;
49610;SDS011;35515;48.766;9.176;2023-11-19T09:37:53;2.80;;;1.00;;
49610;SDS011;35515;48.766;9.176;2023-11-19T09:40:21;2.13;;;1.08;;
49610;SDS011;35515;48.766;9.176;2023-11-19T09:42:48;2.33;;;0.90;;
49610;SDS011;35515;48.766;9.176;2023-11-19T09:45:15;0.70;;;0.70;;
49610;SDS011;35515;48.766;9.176;2023-11-19T09:47:43;1.65;;;0.85;;
49610;SDS011;35515;48.766;9.176;2023-11-19T09:50:12;1.05;;;0.80;;
49610;SDS011;35515;48.766;9.176;2023-11-19T09:52:42;0.68;;;0.65;;
49610;SDS011;35515;48.766;9.176;2023-11-19T09:55:08;2.85;;;1.13;;
49610;SDS011;35515;48.766;9.176;2023-11-19T09:57:36;2.30;;;0.95;;
49610;SDS011;35515;48.766;9.176;2023-11-19T10:00:06;1.20;;;1.00;;
49610;SDS011;35515;48.766;9.176;2023-11-19T10:02:35;1.70;;;0.90;;
49610;SDS011;35515;48.766;9.176;2023-11-19T10:05:04;1.42;;;1.08;;
49610;SDS011;35515;48.766;9.176;2023-11-19T10:07:32;4.50;;;0.95;;
49610;SDS011;35515;48.766;9.176;2023-11-19T10:09:59;1.58;;;1.00;;
49610;SDS011;35515;48.766;9.176;2023-11-19T10:12:26;1.33;;;0.82;;
49610;SDS011;35515;48.766;9.176;2023-11-19T10:14:55;2.03;;;0.95;;
49610;SDS011;35515;48.766;9.176;2023-11-19T10:17:27;1.40;;;0.93;;
49610;SDS011;35515;48.766;9.176;2023-11-19T10:19:54;1.67;;;0.95;;
49610;SDS011;35515;48.766;9.176;2023-11-19T10:22:22;2.97;;;0.90;;
49610;SDS011;35515;48.766;9.176;2023-11-19T10:24:49;1.38;;;1.10;;
49610;SDS011;35515;48.766;9.176;2023-11-19T10:27:15;0.80;;;0.80;;
49610;SDS011;35515;48.766;9.176;2023-11-19T10:29:43;1.75;;;0.90;;
49610;SDS011;35515;48.766;9.176;2023-11-19T10:32:13;1.45;;;0.75;;
49610;SDS011;35515;48.766;9.176;2023-11-19T10:34:40;1.08;;;0.98;;
49610;SDS011;35515;48.766;9.176;2023-11-19T10:37:08;1.65;;;1.20;;
49610;SDS011;35515;48.766;9.176;2023-11-19T10:42:20;5.85;;;1.15;;
49610;SDS011;35515;48.766;9.176;2023-11-19T10:44:46;1.88;;;1.00;;
49610;SDS011;35515;48.766;9.176;2023-11-19T10:47:14;1.05;;;0.85;;
49610;SDS011;35515;48.766;9.176;2023-11-19T10:49:43;4.80;;;2.00;;
49610;SDS011;35515;48.766;9.176;2023-11-19T10:52:10;3.50;;;1.85;;
49610;SDS011;35515;48.766;9.176;2023-11-19T10:54:43;5.65;;;2.42;;
49610;SDS011;35515;48.766;9.176;2023-11-19T10:57:10;7.18;;;2.50;;
49610;SDS011;35515;48.766;9.176;2023-11-19T10:59:42;1.27;;;0.98;;
49610;SDS011;35515;48.766;9.176;2023-11-19T11:02:11;2.03;;;1.10;;
49610;SDS011;35515;48.766;9.176;2023-11-19T11:04:47;1.33;;;0.80;;
49610;SDS011;35515;48.766;9.176;2023-11-19T11:07:16;1.00;;;0.65;;
49610;SDS011;35515;48.766;9.176;2023-11-19T11:09:50;1.13;;;0.82;;
49610;SDS011;35515;48.766;9.176;2023-11-19T11:12:17;1.13;;;0.98;;
49610;SDS011;35515;48.766;9.176;2023-11-19T11:14:48;2.15;;;1.00;;
49610;SDS011;35515;48.766;9.176;2023-11-19T11:17:16;2.63;;;0.90;;
49610;SDS011;35515;48.766;9.176;2023-11-19T11:19:46;2.20;;;0.77;;
49610;SDS011;35515;48.766;9.176;2023-11-19T11:22:12;1.30;;;0.80;;
49610;SDS011;35515;48.766;9.176;2023-11-19T11:24:50;3.53;;;0.90;;
49610;SDS011;35515;48.766;9.176;2023-11-19T11:30:44;1.48;;;1.10;;
49610;SDS011;35515;48.766;9.176;2023-11-19T11:33:34;2.38;;;1.40;;
49610;SDS011;35515;48.766;9.176;2023-11-19T11:36:12;1.65;;;0.90;;
49610;SDS011;35515;48.766;9.176;2023-11-19T11:38:44;2.90;;;1.10;;
49610;SDS011;35515;48.766;9.176;2023-11-19T11:41:17;1.98;;;0.90;;
49610;SDS011;35515;48.766;9.176;2023-11-19T11:43:46;3.40;;;0.82;;
49610;SDS011;35515;48.766;9.176;2023-11-19T11:49:24;2.13;;;1.35;;
49610;SDS011;35515;48.766;9.176;2023-11-19T11:52:01;3.30;;;1.48;;
49610;SDS011;35515;48.766;9.176;2023-11-19T11:54:29;1.20;;;0.93;;
49610;SDS011;35515;48.766;9.176;2023-11-19T11:57:04;1.92;;;0.90;;
49610;SDS011;35515;48.766;9.176;2023-11-19T11:59:37;3.78;;;1.55;;
49610;SDS011;35515;48.766;9.176;2023-11-19T12:02:09;5.57;;;1.30;;
49610;SDS011;35515;48.766;9.176;2023-11-19T12:04:38;2.70;;;1.30;;
49610;SDS011;35515;48.766;9.176;2023-11-19T12:07:06;4.05;;;1.30;;
49610;SDS011;35515;48.766;9.176;2023-11-19T12:09:36;3.67;;;1.40;;
49610;SDS011;35515;48.766;9.176;2023-11-19T12:12:13;2.47;;;1.50;;
49610;SDS011;35515;48.766;9.176;2023-11-19T12:15:00;2.95;;;1.10;;
49610;SDS011;35515;48.766;9.176;2023-11-19T12:17:43;1.92;;;1.42;;
49610;SDS011;35515;48.766;9.176;2023-11-19T12:20:16;2.83;;;1.30;;
49610;SDS011;35515;48.766;9.176;2023-11-19T12:22:45;2.20;;;1.13;;
49610;SDS011;35515;48.766;9.176;2023-11-19T12:25:14;3.78;;;1.25;;
49610;SDS011;35515;48.766;9.176;2023-11-19T12:27:43;1.42;;;0.85;;
49610;SDS011;35515;48.766;9.176;2023-11-19T12:30:11;1.10;;;0.90;;
49610;SDS011;35515;48.766;9.176;2023-11-19T12:32:38;1.92;;;0.93;;
49610;SDS011;35515;48.766;9.176;2023-11-19T12:35:06;2.40;;;0.75;;
49610;SDS011;35515;48.766;9.176;2023-11-19T12:37:40;2.20;;;1.00;;
49610;SDS011;35515;48.766;9.176;2023-11-19T12:40:11;1.73;;;1.10;;
49610;SDS011;35515;48.766;9.176;2023-11-19T12:42:41;3.90;;;1.15;;
49610;SDS011;35515;48.766;9.176;2023-11-19T12:45:08;1.58;;;0.90;;
49610;SDS011;35515;48.766;9.176;2023-11-19T12:47:36;2.22;;;0.88;;
49610;SDS011;35515;48.766;9.176;2023-11-19T12:50:03;2.13;;;1.05;;
49610;SDS011;35515;48.766;9.176;2023-11-19T12:52:30;1.10;;;0.90;;
49610;SDS011;35515;48.766;9.176;2023-11-19T12:54:58;3.72;;;1.00;;
49610;SDS011;35515;48.766;9.176;2023-11-19T12:57:35;2.75;;;1.00;;
49610;SDS011;35515;48.766;9.176;2023-11-19T13:00:03;1.40;;;0.90;;
49610;SDS011;35515;48.766;9.176;2023-11-19T13:02:44;2.03;;;1.10;;
49610;SDS011;35515;48.766;9.176;2023-11-19T13:05:21;2.20;;;1.23;;
49610;SDS011;35515;48.766;9.176;2023-11-19T13:07:49;5.47;;;1.30;;
49610;SDS011;35515;48.766;9.176;2023-11-19T13:10:17;3.70;;;1.23;;
49610;SDS011;35515;48.766;9.176;2023-11-19T13:12:43;2.20;;;0.93;;
49610;SDS011;35515;48.766;9.176;2023-11-19T13:15:22;2.42;;;0.88;;
49610;SDS011;35515;48.766;9.176;2023-11-19T13:17:49;2.72;;;1.00;;
49610;SDS011;35515;48.766;9.176;2023-11-19T13:20:16;2.33;;;0.88;;
49610;SDS011;35515;48.766;9.176;2023-11-19T13:22:53;5.85;;;1.08;;
49610;SDS011;35515;48.766;9.176;2023-11-19T13:25:21;1.70;;;0.90;;
49610;SDS011;35515;48.766;9.176;2023-11-19T13:27:48;3.05;;;1.67;;
49610;SDS011;35515;48.766;9.176;2023-11-19T13:30:16;1.92;;;0.90;;
49610;SDS011;35515;48.766;9.176;2023-11-19T13:32:43;3.20;;;1.27;;
49610;SDS011;35515;48.766;9.176;2023-11-19T13:35:09;1.30;;;1.15;;
49610;SDS011;35515;48.766;9.176;2023-11-19T13:37:36;0.88;;;0.70;;
49610;SDS011;35515;48.766;9.176;2023-11-19T13:40:03;1.02;;;0.70;;
49610;SDS011;35515;48.766;9.176;2023-11-19T13:42:31;2.80;;;0.95;;
49610;SDS011;35515;48.766;9.176;2023-11-19T13:44:58;2.35;;;0.77;;
49610;SDS011;35515;48.766;9.176;2023-11-19T13:47:24;3.00;;;1.23;;
49610;SDS011;35515;48.766;9.176;2023-11-19T13:49:51;3.15;;;0.95;;
49610;SDS011;35515;48.766;9.176;2023-11-19T13:52:17;1.98;;;0.80;;
49610;SDS011;35515;48.766;9.176;2023-11-19T13:54:44;1.17;;;0.80;;
49610;SDS011;35515;48.766;9.176;2023-11-19T13:57:10;1.98;;;0.75;;
49610;SDS011;35515;48.766;9.176;2023-11-19T13:59:40;5.28;;;1.30;;
49610;SDS011;35515;48.766;9.176;2023-11-19T14:02:07;2.42;;;0.80;;
49610;SDS011;35515;48.766;9.176;2023-11-19T14:04:33;1.52;;;0.80;;
49610;SDS011;35515;48.766;9.176;2023-11-19T14:07:00;1.20;;;0.82;;
49610;SDS011;35515;48.766;9.176;2023-11-19T14:09:26;3.30;;;1.00;;
49610;SDS011;35515;48.766;9.176;2023-11-19T14:11:54;2.10;;;0.98;;
49610;SDS011;35515;48.766;9.176;2023-11-19T14:14:20;1.88;;;1.05;;
49610;SDS011;35515;48.766;9.176;2023-11-19T14:16:49;3.70;;;1.10;;
49610;SDS011;35515;48.766;9.176;2023-11-19T14:19:15;2.47;;;1.00;;
49610;SDS011;35515;48.766;9.176;2023-11-19T14:21:42;4.45;;;2.03;;
49610;SDS011;35515;48.766;9.176;2023-11-19T14:24:09;3.95;;;1.40;;
49610;SDS011;35515;48.766;9.176;2023-11-19T14:26:36;3.20;;;1.27;;
49610;SDS011;35515;48.766;9.176;2023-11-19T14:29:02;1.95;;;1.10;;
49610;SDS011;35515;48.766;9.176;2023-11-19T14:31:29;3.92;;;1.77;;
49610;SDS011;35515;48.766;9.176;2023-11-19T14:33:58;2.70;;;1.67;;
49610;SDS011;35515;48.766;9.176;2023-11-19T14:36:26;4.95;;;1.20;;
49610;SDS011;35515;48.766;9.176;2023-11-19T14:38:52;2.83;;;1.38;;
49610;SDS011;35515;48.766;9.176;2023-11-19T14:41:19;3.88;;;1.02;;
49610;SDS011;35515;48.766;9.176;2023-11-19T14:43:45;3.63;;;1.10;;
49610;SDS011;35515;48.766;9.176;2023-11-19T14:46:12;2.03;;;1.20;;
49610;SDS011;35515;48.766;9.176;2023-11-19T14:48:38;1.63;;;0.98;;
49610;SDS011;35515;48.766;9.176;2023-11-19T14:51:06;1.88;;;1.05;;
49610;SDS011;35515;48.766;9.176;2023-11-19T14:53:33;3.28;;;0.98;;
49610;SDS011;35515;48.766;9.176;2023-11-19T14:56:00;1.27;;;0.90;;
49610;SDS011;35515;48.766;9.176;2023-11-19T14:58:27;1.02;;;0.85;;
49610;SDS011;35515;48.766;9.176;2023-11-19T15:00:54;2.60;;;0.90;;
49610;SDS011;35515;48.766;9.176;2023-11-19T15:03:20;1.50;;;0.68;;
49610;SDS011;35515;48.766;9.176;2023-11-19T15:05:47;2.08;;;0.90;;